NMSU Main Campus

2021-10-22 04:25:00

  • imperial
Date Time Air Temperature Relative Humidity Dewpoint Windchill Heat Index Wind Speed Wind Dir. Rain Solar Radiation
2m 2m 3m 3m
US/Mountain F % F F F MPH deg in MJ/m^2
max avg avg
2021-10-21 04:30:00 51.5 48.9 32.9 51.5 51.5 3.7 4.2 3.1 0.0 325.0 0.00 0.0000000
2021-10-21 04:35:00 52.4 45.3 31.9 52.4 52.4 4.2 5.1 4.1 339.8 336.5 0.00 0.0000000
2021-10-21 04:40:00 52.6 45.2 32.0 52.6 52.6 2.6 4.7 3.4 329.2 331.9 0.00 0.0000000
2021-10-21 04:45:00 53.8 41.5 31.0 53.8 53.8 4.0 5.6 3.7 328.0 341.7 0.00 0.0000000
2021-10-21 04:50:00 54.2 40.2 30.6 54.2 54.2 3.8 4.9 3.6 327.7 345.0 0.00 0.0000000
2021-10-21 04:55:00 54.8 39.9 30.9 54.8 54.8 3.1 4.9 3.4 0.0 343.1 0.00 0.0000000
2021-10-21 05:00:00 55.0 40.5 31.4 55.0 55.0 2.6 4.2 3.1 341.6 333.7 0.00 0.0000000
2021-10-21 05:05:00 55.0 38.8 30.4 55.0 55.0 5.1 5.6 4.1 332.1 325.9 0.00 0.0000000
2021-10-21 05:10:00 55.1 38.4 30.2 55.1 55.1 5.5 5.5 4.1 336.3 328.7 0.00 0.0000000
2021-10-21 05:15:00 55.6 38.4 30.7 55.6 55.6 4.0 5.8 4.6 336.5 333.1 0.00 0.0000000
2021-10-21 05:20:00 55.5 38.0 30.3 55.5 55.5 3.5 4.2 3.5 339.6 329.1 0.00 0.0000000
2021-10-21 05:25:00 55.8 36.9 29.8 55.8 55.8 4.6 5.6 4.1 301.2 334.8 0.00 0.0000000
2021-10-21 05:30:00 55.7 37.4 30.1 55.7 55.7 4.2 5.8 4.7 326.5 331.3 0.00 0.0000000
2021-10-21 05:35:00 55.8 36.2 29.4 55.8 55.8 5.1 5.6 4.5 320.4 319.6 0.00 0.0000000
2021-10-21 05:40:00 56.0 36.1 29.5 56.0 56.0 3.7 4.9 3.8 335.1 327.7 0.00 0.0000000
2021-10-21 05:45:00 55.6 36.1 29.1 55.6 55.6 4.0 4.6 3.6 321.2 324.4 0.00 0.0000000
2021-10-21 05:50:00 56.0 37.4 30.4 56.0 56.0 3.5 6.0 4.3 315.9 318.4 0.00 0.0000000
2021-10-21 05:55:00 55.3 37.3 29.7 55.3 55.3 3.8 6.0 4.2 317.6 321.0 0.00 0.0000000
2021-10-21 06:00:00 55.1 36.7 29.1 55.1 55.1 4.0 5.8 4.2 335.7 324.2 0.00 0.0000000
2021-10-21 06:05:00 55.2 37.6 29.8 55.2 55.2 3.3 5.1 4.0 331.4 335.7 0.00 0.0000000
2021-10-21 06:10:00 55.6 35.6 28.7 55.6 55.6 5.1 7.6 5.5 1.3 336.8 0.00 0.0000000
2021-10-21 06:15:00 55.3 35.4 28.3 55.3 55.3 4.4 6.7 5.0 323.4 348.1 0.00 0.0000000
2021-10-21 06:20:00 55.3 36.0 28.8 55.3 55.3 4.9 7.8 5.2 324.0 343.9 0.00 0.0000000
2021-10-21 06:25:00 55.4 34.8 28.0 55.4 55.4 6.9 7.4 5.0 340.9 339.3 0.00 0.0000000
2021-10-21 06:30:00 55.2 36.2 28.8 55.2 55.2 4.7 6.2 4.8 10.7 342.3 0.00 0.0000000
2021-10-21 06:35:00 54.9 35.8 28.3 54.9 54.9 6.9 8.1 5.7 6.2 339.5 0.00 0.0000000
2021-10-21 06:40:00 55.1 36.9 29.2 55.1 55.1 2.4 7.8 4.3 3.0 348.7 0.00 0.0000000
2021-10-21 06:45:00 54.4 37.3 28.8 54.4 54.4 3.8 5.1 3.5 340.7 341.0 0.00 0.0000000
2021-10-21 06:50:00 54.3 37.7 29.0 54.3 54.3 3.8 4.9 3.4 340.1 349.3 0.00 0.0000000
2021-10-21 06:55:00 54.2 37.9 29.0 54.2 54.2 2.2 5.1 3.3 12.9 345.9 0.00 0.0000020
2021-10-21 07:00:00 54.1 38.3 29.2 54.1 54.1 2.2 4.0 3.2 332.2 345.7 0.00 0.0000483
2021-10-21 07:05:00 53.9 37.6 28.5 53.9 53.9 3.5 3.7 2.8 3.0 357.2 0.00 0.0001568
2021-10-21 07:10:00 54.0 38.0 28.9 54.0 54.0 3.1 4.6 3.3 6.7 350.9 0.00 0.0003920
2021-10-21 07:15:00 53.9 38.5 29.1 53.9 53.9 4.0 4.6 3.5 339.7 345.4 0.00 0.0008041
2021-10-21 07:20:00 53.6 38.3 28.8 53.6 53.6 4.4 5.6 4.6 3.7 343.3 0.00 0.0014957
2021-10-21 07:25:00 53.8 39.3 29.6 53.8 53.8 4.0 6.0 4.5 0.0 340.6 0.00 0.0022455
2021-10-21 07:30:00 53.3 39.3 29.2 53.3 53.3 4.0 5.6 4.4 5.0 344.3 0.00 0.0030195
2021-10-21 07:35:00 53.4 39.6 29.4 53.4 53.4 5.1 5.1 3.5 336.6 346.4 0.00 0.0048470
2021-10-21 07:40:00 53.9 38.0 28.8 53.9 53.9 4.0 4.7 3.5 5.5 349.0 0.00 0.0090187
2021-10-21 07:45:00 54.4 36.3 28.2 54.4 54.4 7.1 8.3 4.6 335.5 5.3 0.00 0.0132365
2021-10-21 07:50:00 54.5 36.1 28.2 54.5 54.5 4.7 7.1 5.3 34.3 10.8 0.00 0.0172130
2021-10-21 07:55:00 54.9 35.1 27.8 54.9 54.9 6.3 7.1 4.8 17.6 12.1 0.00 0.0254536
2021-10-21 08:00:00 55.0 34.9 27.7 55.0 55.0 4.2 5.6 4.4 10.4 7.0 0.00 0.0315911
2021-10-21 08:05:00 55.1 34.4 27.5 55.1 55.1 5.6 8.1 5.8 18.3 21.5 0.00 0.0368461
2021-10-21 08:10:00 55.4 33.9 27.4 55.4 55.4 6.9 6.9 5.1 43.3 17.4 0.00 0.0413345
2021-10-21 08:15:00 55.1 34.5 27.5 55.1 55.1 5.3 8.3 6.0 48.1 19.7 0.00 0.0459574
2021-10-21 08:20:00 55.2 33.9 27.3 55.2 55.2 4.4 7.4 5.2 31.6 17.5 0.00 0.0506609
2021-10-21 08:25:00 55.9 33.3 27.4 55.9 55.9 4.6 8.3 5.5 32.5 14.9 0.00 0.0553587
2021-10-21 08:30:00 56.2 33.3 27.6 56.2 56.2 4.0 7.6 5.0 0.0 8.9 0.00 0.0599916
2021-10-21 08:35:00 56.7 32.4 27.4 56.7 56.7 3.5 5.8 4.3 20.3 4.9 0.00 0.0648278
2021-10-21 08:40:00 57.1 32.4 27.8 57.1 57.1 3.1 6.7 4.5 33.6 14.3 0.00 0.0694099
2021-10-21 08:45:00 57.2 31.5 27.2 57.2 57.2 7.4 7.8 6.0 12.1 25.0 0.00 0.0742104
2021-10-21 08:50:00 57.7 32.5 28.4 57.7 57.7 4.0 7.6 4.8 310.4 9.6 0.00 0.0789945
2021-10-21 08:55:00 58.0 31.1 27.5 58.0 58.0 5.5 7.4 5.3 319.0 3.7 0.00 0.0836795
2021-10-21 09:00:00 57.9 30.6 27.1 57.9 57.9 7.4 9.0 7.2 5.3 13.2 0.00 0.0883078
2021-10-21 09:05:00 58.7 31.8 28.8 58.7 58.7 5.3 8.7 5.9 1.3 13.8 0.00 0.0930498
2021-10-21 09:10:00 59.0 31.3 28.6 59.0 59.0 4.7 7.1 5.2 43.4 3.2 0.00 0.0976870
2021-10-21 09:15:00 59.4 30.1 28.0 59.4 59.4 4.9 7.4 5.5 321.1 13.6 0.00 0.1022459
2021-10-21 09:20:00 60.1 29.7 28.3 60.1 60.1 5.8 8.0 5.1 313.6 354.7 0.00 0.1067682
2021-10-21 09:25:00 60.7 30.5 29.4 60.7 60.7 7.1 8.7 5.7 0.9 356.8 0.00 0.1111903
2021-10-21 09:30:00 60.6 29.7 28.8 60.6 60.6 4.7 9.9 6.5 320.0 347.6 0.00 0.1156348
2021-10-21 09:35:00 61.2 27.8 27.6 61.2 61.2 6.3 9.4 5.7 0.6 352.7 0.00 0.1200685
2021-10-21 09:40:00 61.6 28.2 28.4 61.6 61.6 4.2 8.5 6.0 316.5 343.7 0.00 0.1244206
2021-10-21 09:45:00 62.4 27.2 28.1 62.4 62.4 6.9 7.4 4.6 332.5 351.7 0.00 0.1285550
2021-10-21 09:50:00 63.1 28.2 29.5 63.1 63.1 5.1 8.5 5.5 339.0 353.9 0.00 0.1328150
2021-10-21 09:55:00 63.2 26.5 28.2 63.2 63.2 6.5 8.3 5.8 24.3 1.6 0.00 0.1368140
2021-10-21 10:00:00 63.6 28.7 30.5 63.6 63.6 6.0 8.7 6.2 1.8 339.3 0.00 0.1407676
2021-10-21 10:05:00 64.4 27.4 30.0 64.4 64.4 5.1 8.0 5.3 39.8 356.7 0.00 0.1449292
2021-10-21 10:10:00 65.2 25.3 28.8 65.2 65.2 4.7 7.4 4.9 317.2 7.2 0.00 0.1488852
2021-10-21 10:15:00 65.9 24.9 29.0 65.9 65.9 8.1 8.1 5.3 339.3 346.5 0.00 0.1526130
2021-10-21 10:20:00 66.5 24.3 28.9 66.5 66.5 4.2 8.1 6.0 26.5 323.6 0.00 0.1563886
2021-10-21 10:25:00 66.9 23.0 27.9 66.9 66.9 6.7 7.4 5.6 22.1 339.2 0.00 0.1599900
2021-10-21 10:30:00 67.3 23.5 28.8 67.3 67.3 7.1 8.0 5.7 41.4 358.0 0.00 0.1635537
2021-10-21 10:35:00 68.2 23.7 29.7 68.2 68.2 2.6 6.3 4.4 324.5 2.3 0.00 0.1670547
2021-10-21 10:40:00 68.6 22.5 28.8 68.6 68.6 5.5 6.5 5.0 339.7 342.1 0.00 0.1704657
2021-10-21 10:45:00 68.3 21.9 27.9 68.3 68.3 5.5 7.1 5.2 338.6 12.3 0.00 0.1737717
2021-10-21 10:50:00 68.9 23.2 29.8 68.9 68.9 2.6 6.9 5.1 322.2 351.3 0.00 0.1767974
2021-10-21 10:55:00 69.8 23.6 30.9 69.8 69.8 4.4 6.7 4.6 9.5 353.0 0.00 0.1798275
2021-10-21 11:00:00 70.1 21.4 28.9 70.1 70.1 4.6 6.5 5.1 1.7 3.7 0.00 0.1828959
2021-10-21 11:05:00 70.6 22.2 30.1 70.6 70.6 8.0 9.4 6.0 328.1 338.3 0.00 0.1856235
2021-10-21 11:10:00 71.1 22.5 30.9 71.1 71.1 3.5 8.3 6.0 0.0 333.1 0.00 0.1883019
2021-10-21 11:15:00 71.8 20.0 28.6 71.8 71.8 2.2 7.1 4.5 283.3 350.8 0.00 0.1909044
2021-10-21 11:20:00 72.6 19.1 28.1 72.6 72.6 4.6 8.1 4.8 338.0 312.3 0.00 0.1933368
2021-10-21 11:25:00 73.9 18.9 28.9 73.9 73.9 3.3 5.8 3.4 55.9 18.4 0.00 0.1958931
2021-10-21 11:30:00 74.1 19.1 29.3 74.1 74.1 3.3 6.5 4.1 21.5 0.7 0.00 0.1982648
2021-10-21 11:35:00 74.3 18.6 28.9 74.3 74.3 4.7 5.6 3.6 283.3 319.6 0.00 0.2003467
2021-10-21 11:40:00 75.1 17.7 28.2 75.1 75.1 4.9 6.5 3.6 319.9 314.1 0.00 0.2022556
2021-10-21 11:45:00 75.5 17.2 28.0 75.5 75.5 2.4 6.3 3.1 75.9 341.4 0.00 0.2041603
2021-10-21 11:50:00 76.6 18.5 30.5 76.6 76.6 2.1 4.4 2.7 229.5 304.4 0.00 0.2061908
2021-10-21 11:55:00 76.7 19.3 31.7 76.7 76.7 2.4 4.2 2.9 329.8 268.6 0.00 0.2078891
2021-10-21 12:00:00 76.7 16.9 28.4 76.7 76.7 1.7 4.7 3.1 180.3 285.6 0.00 0.2093282
2021-10-21 12:05:00 77.6 18.1 30.8 77.6 77.6 3.0 4.9 2.4 236.5 241.0 0.00 0.2105953
2021-10-21 12:10:00 77.4 17.9 30.4 77.4 77.4 3.7 6.9 3.8 292.4 280.0 0.00 0.2119780
2021-10-21 12:15:00 77.5 17.0 29.2 77.5 77.5 2.8 5.1 3.1 8.5 287.5 0.00 0.2129911
2021-10-21 12:20:00 78.3 16.1 28.5 78.3 78.3 2.6 3.8 2.5 267.9 245.4 0.00 0.2139671
2021-10-21 12:25:00 79.2 15.7 28.7 79.2 79.2 2.2 3.8 2.4 162.2 195.9 0.00 0.2151134
2021-10-21 12:30:00 79.3 15.5 28.4 79.3 79.3 2.2 4.7 3.3 256.0 242.5 0.00 0.2159939
2021-10-21 12:35:00 79.4 16.2 29.6 79.4 79.4 2.6 5.8 3.5 211.4 207.5 0.00 0.2162592
2021-10-21 12:40:00 80.1 16.6 30.8 80.1 80.1 1.7 4.4 3.0 201.3 186.4 0.00 0.2166824
2021-10-21 12:45:00 80.4 14.9 28.4 80.4 80.4 3.7 4.4 3.2 157.0 192.0 0.00 0.2170110
2021-10-21 12:50:00 80.6 15.3 29.2 80.6 80.6 3.8 3.8 2.8 140.8 130.0 0.00 0.2170109
2021-10-21 12:55:00 80.8 14.8 28.5 80.8 80.8 4.2 4.2 2.9 168.1 149.0 0.00 0.2173189
2021-10-21 13:00:00 80.5 16.1 30.4 80.5 80.5 3.3 5.5 3.6 198.0 154.3 0.00 0.2170383
2021-10-21 13:05:00 81.1 14.9 29.0 81.1 81.1 1.2 4.6 3.0 211.1 205.6 0.00 0.2163918
2021-10-21 13:10:00 82.0 14.1 28.3 82.0 82.0 3.8 5.3 2.7 252.8 203.8 0.00 0.2160559
2021-10-21 13:15:00 82.4 15.6 31.0 82.4 82.4 3.1 5.3 2.8 161.4 185.9 0.00 0.2153478
2021-10-21 13:20:00 82.3 16.6 32.5 82.3 82.3 4.4 5.5 3.1 249.8 228.5 0.00 0.2151676
2021-10-21 13:25:00 82.3 14.3 28.9 82.3 82.3 4.0 5.1 3.3 141.9 185.1 0.00 0.2145223
2021-10-21 13:30:00 82.0 14.9 29.6 82.0 82.0 3.7 4.7 3.3 76.4 90.1 0.00 0.2136449
2021-10-21 13:35:00 81.7 16.2 31.4 81.7 81.7 3.8 4.6 3.1 303.3 225.7 0.00 0.2131475
2021-10-21 13:40:00 82.4 15.8 31.4 82.4 82.4 2.6 4.2 2.7 222.9 301.8 0.00 0.2119201
2021-10-21 13:45:00 83.0 15.6 31.6 83.0 83.0 2.8 6.5 3.7 174.6 200.8 0.00 0.2106923
2021-10-21 13:50:00 83.6 15.2 31.3 83.6 83.6 2.8 6.5 3.4 156.3 156.7 0.00 0.2089330
2021-10-21 13:55:00 82.7 15.7 31.5 82.7 82.7 3.0 6.2 3.6 227.8 186.0 0.00 0.2073515
2021-10-21 14:00:00 83.3 14.4 29.9 83.3 83.3 4.6 6.3 3.4 102.3 113.7 0.00 0.2058064
2021-10-21 14:05:00 82.7 14.6 29.7 82.7 82.7 3.3 6.0 3.9 76.5 98.2 0.00 0.2041708
2021-10-21 14:10:00 83.8 14.6 30.5 83.8 83.8 3.1 5.3 3.6 107.2 128.6 0.00 0.2027086
2021-10-21 14:15:00 82.9 14.5 29.7 82.9 82.9 2.8 7.4 4.8 72.6 105.2 0.00 0.2003199
2021-10-21 14:20:00 83.7 16.0 32.7 83.7 83.7 2.6 5.5 3.4 46.7 106.5 0.00 0.1983040
2021-10-21 14:25:00 83.8 15.2 31.6 83.8 83.8 3.5 4.9 2.9 129.9 134.5 0.00 0.1960042
2021-10-21 14:30:00 83.2 15.3 31.1 83.2 83.2 1.0 8.5 3.6 53.6 98.1 0.00 0.1936070
2021-10-21 14:35:00 84.1 15.4 32.1 84.1 84.1 1.9 4.0 2.2 122.6 82.5 0.00 0.1910946
2021-10-21 14:40:00 84.3 14.5 30.8 84.3 84.3 2.2 3.3 1.9 133.1 99.9 0.00 0.1885171
2021-10-21 14:45:00 83.6 14.9 30.9 83.6 83.6 4.7 4.9 3.5 98.7 129.5 0.00 0.1860960
2021-10-21 14:50:00 83.5 15.2 31.3 83.5 83.5 4.0 5.1 3.3 157.4 142.0 0.00 0.1829399
2021-10-21 14:55:00 82.8 15.2 30.8 82.8 82.8 2.4 5.3 3.6 102.1 131.4 0.00 0.1801110
2021-10-21 15:00:00 83.1 15.2 30.9 83.1 83.1 2.2 4.7 3.0 84.3 185.8 0.00 0.1768049
2021-10-21 15:05:00 83.6 15.1 31.3 83.6 83.6 4.0 5.3 2.9 108.0 73.0 0.00 0.1739359
2021-10-21 15:10:00 83.9 14.9 31.2 83.9 83.9 3.7 4.9 3.2 207.8 162.9 0.00 0.1709685
2021-10-21 15:15:00 83.9 15.7 32.4 83.9 83.9 3.3 6.0 3.4 197.1 222.5 0.00 0.1678228
2021-10-21 15:20:00 83.2 16.0 32.3 83.2 83.2 5.3 8.0 5.2 244.1 247.9 0.00 0.1643371
2021-10-21 15:25:00 83.6 15.0 31.0 83.6 83.6 4.0 6.0 3.4 192.7 194.4 0.00 0.1606891
2021-10-21 15:30:00 83.7 14.4 30.2 83.7 83.7 3.5 4.6 3.2 176.8 148.5 0.00 0.1573912
2021-10-21 15:35:00 84.4 15.1 31.8 84.4 84.4 3.7 3.7 2.1 39.5 59.0 0.00 0.1534746
2021-10-21 15:40:00 85.0 14.4 31.2 85.0 85.0 1.0 4.2 2.3 338.5 4.0 0.00 0.1497184
2021-10-21 15:45:00 84.8 14.5 31.2 84.8 84.8 2.8 4.2 2.5 178.3 138.2 0.00 0.1455260
2021-10-21 15:50:00 84.9 15.3 32.7 84.9 84.9 3.0 4.4 2.8 307.6 273.9 0.00 0.1415765
2021-10-21 15:55:00 84.5 14.0 30.1 84.5 84.5 4.6 4.6 3.5 237.9 230.0 0.00 0.1376388
2021-10-21 16:00:00 83.8 14.7 30.7 83.8 83.8 2.2 5.1 3.2 27.5 261.1 0.00 0.1334097
2021-10-21 16:05:00 84.1 14.5 30.7 84.1 84.1 2.2 5.1 2.8 186.1 203.6 0.00 0.1291802
2021-10-21 16:10:00 84.2 15.2 31.8 84.2 84.2 2.6 3.8 2.5 195.2 136.7 0.00 0.1248522
2021-10-21 16:15:00 85.1 15.3 32.7 85.1 85.1 2.8 4.4 2.7 156.2 177.1 0.00 0.1207894
2021-10-21 16:20:00 84.7 13.9 30.1 84.7 84.7 2.4 3.5 2.6 128.2 171.9 0.00 0.1163953
2021-10-21 16:25:00 84.9 15.1 32.3 84.9 84.9 4.4 5.6 2.4 252.3 280.6 0.00 0.1119466
2021-10-21 16:30:00 84.4 14.6 31.1 84.4 84.4 3.5 4.6 2.9 280.5 270.1 0.00 0.1075148
2021-10-21 16:35:00 84.2 14.7 31.0 84.2 84.2 3.0 5.6 3.6 249.7 247.2 0.00 0.1029690
2021-10-21 16:40:00 84.4 14.4 30.6 84.4 84.4 2.4 4.7 2.5 162.7 218.7 0.00 0.0981527
2021-10-21 16:45:00 85.0 14.0 30.4 85.0 85.0 3.3 4.2 2.1 230.6 207.2 0.00 0.0931734
2021-10-21 16:50:00 84.8 13.7 29.8 84.8 84.8 4.6 5.6 3.1 234.4 205.1 0.00 0.0885160
2021-10-21 16:55:00 84.1 14.5 30.7 84.1 84.1 3.8 5.1 3.8 256.5 232.9 0.00 0.0839637
2021-10-21 17:00:00 83.9 14.7 30.8 83.9 83.9 3.0 5.3 3.1 186.5 223.0 0.00 0.0791001
2021-10-21 17:05:00 84.6 13.8 29.7 84.6 84.6 2.2 3.5 2.3 264.8 208.1 0.00 0.0742350
2021-10-21 17:10:00 84.6 14.1 30.3 84.6 84.6 2.4 3.1 2.0 128.2 176.0 0.00 0.0693867
2021-10-21 17:15:00 84.5 14.4 30.7 84.5 84.5 3.8 3.8 2.0 198.4 159.8 0.00 0.0644852
2021-10-21 17:20:00 84.5 14.3 30.6 84.5 84.5 0.0 3.5 2.0 281.2 224.9 0.00 0.0598061
2021-10-21 17:25:00 84.1 14.0 29.7 84.1 84.1 3.1 3.5 2.3 142.6 153.2 0.00 0.0549734
2021-10-21 17:30:00 83.7 14.1 29.7 83.7 83.7 0.0 3.0 1.8 153.0 183.0 0.00 0.0502372
2021-10-21 17:35:00 84.2 14.0 29.9 84.2 84.2 0.0 1.2 0.3 320.3 46.1 0.00 0.0455045
2021-10-21 17:40:00 84.6 13.4 29.1 84.6 84.6 1.3 1.9 0.5 4.8 330.0 0.00 0.0407386
2021-10-21 17:45:00 85.1 13.3 29.3 85.1 85.1 0.0 1.2 0.1 318.9 338.6 0.00 0.0360869
2021-10-21 17:50:00 85.3 13.7 30.1 85.3 85.3 1.2 1.2 0.4 258.1 224.4 0.00 0.0283772
2021-10-21 17:55:00 83.6 15.5 32.0 83.6 83.6 3.0 3.8 2.3 291.2 294.8 0.00 0.0245096
2021-10-21 18:00:00 82.5 15.4 30.9 82.5 82.5 1.7 3.8 1.9 333.8 315.0 0.00 0.0195304
2021-10-21 18:05:00 82.5 15.6 31.2 82.5 82.5 0.0 1.9 0.6 2.2 335.2 0.00 0.0146234
2021-10-21 18:10:00 81.9 14.9 29.5 81.9 81.9 0.0 2.1 0.8 197.5 185.2 0.00 0.0103886
2021-10-21 18:15:00 81.7 16.5 31.9 81.7 81.7 0.0 0.0 0.0 168.8 0.0 0.00 0.0066252
2021-10-21 18:20:00 79.9 17.8 32.4 79.9 79.9 0.0 0.0 0.0 157.2 0.0 0.00 0.0039227
2021-10-21 18:25:00 78.7 20.1 34.3 78.7 78.7 1.9 2.4 1.4 98.8 109.0 0.00 0.0021973
2021-10-21 18:30:00 77.6 20.7 34.3 77.6 77.6 1.5 2.4 1.6 110.2 96.5 0.00 0.0013766
2021-10-21 18:35:00 76.8 21.2 34.1 76.8 76.8 1.3 1.5 1.0 108.2 107.8 0.00 0.0007867
2021-10-21 18:40:00 76.3 22.4 35.0 76.3 76.3 0.8 1.5 0.9 113.3 109.6 0.00 0.0004455
2021-10-21 18:45:00 75.4 23.2 35.2 75.4 75.4 1.3 1.3 1.1 113.1 116.3 0.00 0.0002127
2021-10-21 18:50:00 75.1 22.9 34.7 75.1 75.1 1.2 1.7 1.4 108.4 115.3 0.00 0.0001004
2021-10-21 18:55:00 74.4 23.4 34.6 74.4 74.4 1.2 1.7 1.2 106.2 106.6 0.00 0.0000020
2021-10-21 19:00:00 74.0 23.9 34.8 74.0 74.0 1.0 1.5 1.2 116.4 110.3 0.00 0.0000000
2021-10-21 19:05:00 73.1 24.9 35.1 73.1 73.1 0.0 1.2 0.7 131.2 115.4 0.00 0.0000000
2021-10-21 19:10:00 72.3 25.6 35.1 72.3 72.3 0.0 0.0 0.0 111.6 0.0 0.00 0.0000000
2021-10-21 19:15:00 71.5 27.0 35.7 71.5 71.5 0.0 1.0 0.5 126.6 124.3 0.00 0.0000000
2021-10-21 19:20:00 71.2 27.2 35.7 71.2 71.2 0.0 0.0 0.0 135.6 0.0 0.00 0.0000000
2021-10-21 19:25:00 70.7 29.2 37.1 70.7 70.7 0.0 0.0 0.0 176.1 0.0 0.00 0.0000000
2021-10-21 19:30:00 69.8 30.2 37.1 69.8 69.8 0.0 0.0 0.0 173.9 0.0 0.00 0.0000000
2021-10-21 19:35:00 69.5 31.3 37.9 69.5 69.5 0.0 0.0 0.0 180.3 0.0 0.00 0.0000000
2021-10-21 19:40:00 68.9 31.6 37.5 68.9 68.9 1.2 1.9 1.0 188.6 185.2 0.00 0.0000000
2021-10-21 19:45:00 68.5 30.7 36.3 68.5 68.5 0.0 1.3 0.8 213.8 196.9 0.00 0.0000000
2021-10-21 19:50:00 68.7 29.5 35.6 68.7 68.7 1.2 1.3 0.6 270.4 250.9 0.00 0.0000000
2021-10-21 19:55:00 69.3 28.9 35.6 69.3 69.3 1.5 2.8 1.9 210.5 222.7 0.00 0.0000020
2021-10-21 20:00:00 69.7 29.9 36.7 69.7 69.7 0.8 1.9 0.5 121.2 187.5 0.00 0.0000000
2021-10-21 20:05:00 68.7 33.2 38.6 68.7 68.7 0.0 1.0 0.3 166.5 143.4 0.00 0.0000000
2021-10-21 20:10:00 67.9 34.2 38.6 67.9 67.9 0.0 0.0 0.0 91.2 0.0 0.00 0.0000000
2021-10-21 20:15:00 67.1 35.1 38.6 67.1 67.1 0.0 0.0 0.0 97.8 0.0 0.00 0.0000000
2021-10-21 20:20:00 66.7 35.0 38.2 66.7 66.7 0.0 0.0 0.0 105.8 0.0 0.00 0.0000000
2021-10-21 20:25:00 66.5 35.4 38.2 66.5 66.5 1.2 1.2 0.2 104.5 112.9 0.00 0.0000000
2021-10-21 20:30:00 66.5 35.3 38.2 66.5 66.5 0.8 1.7 1.3 171.2 123.0 0.00 0.0000000
2021-10-21 20:35:00 66.0 36.3 38.5 66.0 66.0 1.7 1.7 0.5 155.8 162.4 0.00 0.0000000
2021-10-21 20:40:00 65.6 38.2 39.4 65.6 65.6 0.0 1.5 0.7 195.3 182.3 0.00 0.0000000
2021-10-21 20:45:00 64.8 35.4 36.8 64.8 64.8 1.3 1.5 0.3 132.0 130.4 0.00 0.0000000
2021-10-21 20:50:00 64.5 37.5 38.0 64.5 64.5 0.0 1.3 0.1 123.9 130.0 0.00 0.0000000
2021-10-21 20:55:00 64.2 38.1 38.2 64.2 64.2 0.0 0.8 0.1 131.1 131.1 0.00 0.0000000
2021-10-21 21:00:00 64.0 36.4 36.8 64.0 64.0 1.0 1.0 0.0 183.8 183.8 0.00 0.0000000
2021-10-21 21:05:00 64.0 36.6 36.9 64.0 64.0 0.0 1.3 0.7 166.5 165.2 0.00 0.0000000
2021-10-21 21:10:00 63.3 35.3 35.4 63.3 63.3 0.0 0.0 0.0 166.5 0.0 0.00 0.0000020
2021-10-21 21:15:00 62.7 36.1 35.5 62.7 62.7 0.0 0.0 0.0 166.5 0.0 0.00 0.0000000
2021-10-21 21:20:00 62.2 36.4 35.2 62.2 62.2 0.0 0.0 0.0 166.5 0.0 0.00 0.0000000
2021-10-21 21:25:00 62.2 36.4 35.2 62.2 62.2 0.0 0.0 0.0 166.5 0.0 0.00 0.0000000
2021-10-21 21:30:00 62.1 35.8 34.7 62.1 62.1 0.0 0.0 0.0 166.5 0.0 0.00 0.0000000
2021-10-21 21:35:00 62.2 37.1 35.7 62.2 62.2 0.0 0.0 0.0 0.3 0.0 0.00 0.0000000
2021-10-21 21:40:00 62.3 40.0 37.6 62.3 62.3 0.8 1.9 1.0 3.6 351.7 0.00 0.0000020
2021-10-21 21:45:00 62.3 40.6 38.0 62.3 62.3 0.0 0.0 0.0 0.2 0.0 0.00 0.0000000
2021-10-21 21:50:00 61.8 42.4 38.7 61.8 61.8 0.0 0.0 0.0 4.6 0.0 0.00 0.0000000
2021-10-21 21:55:00 62.2 40.8 38.1 62.2 62.2 0.0 0.0 0.0 120.1 0.0 0.00 0.0000000
2021-10-21 22:00:00 62.0 40.6 37.7 62.0 62.0 0.0 1.3 0.3 117.7 116.4 0.00 0.0000000
2021-10-21 22:05:00 62.2 44.1 40.1 62.2 62.2 1.3 1.3 0.4 187.5 190.1 0.00 0.0000000
2021-10-21 22:10:00 61.7 43.1 39.1 61.7 61.7 0.0 1.3 0.2 171.4 187.4 0.00 0.0000000
2021-10-21 22:15:00 61.1 43.8 38.8 61.1 61.1 0.0 0.0 0.0 170.6 0.0 0.00 0.0000000
2021-10-21 22:20:00 60.8 43.9 38.7 60.8 60.8 0.0 0.0 0.0 153.7 0.0 0.00 0.0000000
2021-10-21 22:25:00 60.7 43.9 38.6 60.7 60.7 0.0 0.0 0.0 155.3 0.0 0.00 0.0000000
2021-10-21 22:30:00 60.4 42.8 37.7 60.4 60.4 0.0 1.2 0.3 160.1 167.1 0.00 0.0000000
2021-10-21 22:35:00 60.2 43.8 38.1 60.2 60.2 0.0 0.0 0.0 198.8 0.0 0.00 0.0000000
2021-10-21 22:40:00 60.1 45.0 38.6 60.1 60.1 0.0 0.0 0.0 189.9 0.0 0.00 0.0000000
2021-10-21 22:45:00 59.7 48.0 40.0 59.7 59.7 0.0 0.0 0.0 142.4 0.0 0.00 0.0000000
2021-10-21 22:50:00 59.5 49.0 40.4 59.5 59.5 0.0 0.0 0.0 142.0 0.0 0.00 0.0000000
2021-10-21 22:55:00 59.1 50.4 40.7 59.1 59.1 0.0 0.0 0.0 142.1 0.0 0.00 0.0000000
2021-10-21 23:00:00 59.0 51.1 40.9 59.0 59.0 0.0 0.0 0.0 142.1 0.0 0.00 0.0000000
2021-10-21 23:05:00 58.7 51.0 40.7 58.7 58.7 0.0 0.0 0.0 141.3 0.0 0.00 0.0000000
2021-10-21 23:10:00 58.6 51.9 41.0 58.6 58.6 0.0 0.0 0.0 122.0 0.0 0.00 0.0000000
2021-10-21 23:15:00 58.7 52.6 41.4 58.7 58.7 0.0 0.0 0.0 156.5 0.0 0.00 0.0000000
2021-10-21 23:20:00 58.1 52.8 41.0 58.1 58.1 0.0 0.0 0.0 156.6 0.0 0.00 0.0000000
2021-10-21 23:25:00 57.7 53.8 41.0 57.7 57.7 0.0 0.0 0.0 156.5 0.0 0.00 0.0000000
2021-10-21 23:30:00 57.8 54.6 41.6 57.8 57.8 0.0 0.0 0.0 156.6 0.0 0.00 0.0000000
2021-10-21 23:35:00 57.6 54.8 41.5 57.6 57.6 0.0 0.0 0.0 142.5 0.0 0.00 0.0000040
2021-10-21 23:40:00 57.8 55.7 42.0 57.8 57.8 0.0 0.0 0.0 138.4 0.0 0.00 0.0000020
2021-10-21 23:45:00 57.5 55.1 41.5 57.5 57.5 0.0 0.0 0.0 138.4 0.0 0.00 0.0000000
2021-10-21 23:50:00 56.9 54.7 40.7 56.9 56.9 0.0 0.0 0.0 138.5 0.0 0.00 0.0000000
2021-10-21 23:55:00 56.9 52.0 39.4 56.9 56.9 0.0 0.0 0.0 138.5 0.0 0.00 0.0000000
2021-10-22 00:00:00 56.2 52.5 39.0 56.2 56.2 0.0 0.0 0.0 138.5 0.0 0.00 0.0000000
2021-10-22 00:05:00 56.0 52.3 38.8 56.0 56.0 0.0 0.0 0.0 138.6 0.0 0.00 0.0000040
2021-10-22 00:10:00 56.4 49.6 37.8 56.4 56.4 0.0 0.0 0.0 138.3 0.0 0.00 0.0000040
2021-10-22 00:15:00 56.3 52.1 38.9 56.3 56.3 0.0 0.0 0.0 138.2 0.0 0.00 0.0000141
2021-10-22 00:20:00 56.6 50.6 38.4 56.6 56.6 1.9 1.9 0.3 129.4 123.1 0.00 0.0000040
2021-10-22 00:25:00 56.8 46.9 36.7 56.8 56.8 1.5 3.7 2.4 254.5 157.9 0.00 0.0000000
2021-10-22 00:30:00 57.3 49.6 38.6 57.3 57.3 1.5 2.8 1.7 263.8 248.8 0.00 0.0000000
2021-10-22 00:35:00 57.3 50.1 38.9 57.3 57.3 0.0 1.9 0.7 80.8 245.1 0.00 0.0000000
2021-10-22 00:40:00 56.9 48.5 37.7 56.9 56.9 0.0 2.1 0.7 58.3 126.1 0.00 0.0000000
2021-10-22 00:45:00 56.6 48.9 37.7 56.6 56.6 0.0 1.3 0.3 176.1 147.0 0.00 0.0000000
2021-10-22 00:50:00 56.2 50.2 37.9 56.2 56.2 0.0 0.0 0.0 318.2 0.0 0.00 0.0000000
2021-10-22 00:55:00 56.3 49.6 37.7 56.3 56.3 0.0 0.0 0.0 315.6 0.0 0.00 0.0000000
2021-10-22 01:00:00 55.9 49.2 37.1 55.9 55.9 0.0 1.2 0.2 307.1 296.5 0.00 0.0000000
2021-10-22 01:05:00 55.8 47.6 36.2 55.8 55.8 0.0 0.0 0.0 97.2 0.0 0.00 0.0000000
2021-10-22 01:10:00 55.9 46.3 35.6 55.9 55.9 1.0 1.0 0.0 117.2 117.2 0.00 0.0000000
2021-10-22 01:15:00 55.7 45.2 34.8 55.7 55.7 0.0 1.3 0.4 72.1 145.7 0.00 0.0000000
2021-10-22 01:20:00 55.7 51.3 38.0 55.7 55.7 1.7 2.4 0.6 194.2 177.4 0.00 0.0000000
2021-10-22 01:25:00 55.2 52.2 38.0 55.2 55.2 1.2 2.8 2.1 151.4 215.8 0.00 0.0000000
2021-10-22 01:30:00 55.3 51.5 37.7 55.3 55.3 0.0 1.0 0.1 217.2 166.2 0.00 0.0000000
2021-10-22 01:35:00 55.0 52.8 38.0 55.0 55.0 0.0 0.0 0.0 170.5 0.0 0.00 0.0000000
2021-10-22 01:40:00 54.6 54.7 38.6 54.6 54.6 0.0 0.0 0.0 119.3 0.0 0.00 0.0000000
2021-10-22 01:45:00 54.3 54.8 38.4 54.3 54.3 0.0 1.7 0.4 323.5 106.5 0.00 0.0000000
2021-10-22 01:50:00 54.4 53.2 37.7 54.4 54.4 3.0 3.7 1.0 107.9 101.8 0.00 0.0000000
2021-10-22 01:55:00 54.9 51.9 37.5 54.9 54.9 1.2 2.6 0.7 341.1 29.0 0.00 0.0000000
2021-10-22 02:00:00 55.0 51.7 37.5 55.0 55.0 0.0 1.2 0.3 138.5 28.3 0.00 0.0000000
2021-10-22 02:05:00 54.7 55.3 39.0 54.7 54.7 1.3 1.7 0.5 243.5 226.6 0.00 0.0000000
2021-10-22 02:10:00 54.6 55.2 38.9 54.6 54.6 0.0 1.3 0.4 303.9 260.6 0.00 0.0000000
2021-10-22 02:15:00 54.3 54.6 38.3 54.3 54.3 0.0 0.0 0.0 6.3 0.0 0.00 0.0000000
2021-10-22 02:20:00 54.3 53.6 37.8 54.3 54.3 0.0 0.0 0.0 96.4 0.0 0.00 0.0000000
2021-10-22 02:25:00 54.3 54.3 38.1 54.3 54.3 0.0 0.0 0.0 96.1 0.0 0.00 0.0000000
2021-10-22 02:30:00 53.9 53.7 37.5 53.9 53.9 0.0 0.0 0.0 284.9 0.0 0.00 0.0000000
2021-10-22 02:35:00 54.1 53.9 37.7 54.1 54.1 0.0 0.0 0.0 291.1 0.0 0.00 0.0000000
2021-10-22 02:40:00 53.9 53.2 37.2 53.9 53.9 0.0 0.0 0.0 266.9 0.0 0.00 0.0000000
2021-10-22 02:45:00 54.7 52.3 37.6 54.7 54.7 0.0 1.5 0.7 226.4 259.0 0.00 0.0000000
2021-10-22 02:50:00 54.3 50.1 36.1 54.3 54.3 0.0 0.0 0.0 95.9 0.0 0.00 0.0000000
2021-10-22 02:55:00 54.3 50.3 36.2 54.3 54.3 0.0 0.0 0.0 95.9 0.0 0.00 0.0000000
2021-10-22 03:00:00 54.1 53.2 37.5 54.1 54.1 0.0 0.0 0.0 105.8 0.0 0.00 0.0000000
2021-10-22 03:05:00 54.0 53.4 37.4 54.0 54.0 0.0 0.0 0.0 104.4 0.0 0.00 0.0000000
2021-10-22 03:10:00 53.7 52.7 36.8 53.7 53.7 0.0 0.0 0.0 104.4 0.0 0.00 0.0000000
2021-10-22 03:15:00 53.6 53.1 37.0 53.6 53.6 0.0 0.0 0.0 137.9 0.0 0.00 0.0000000
2021-10-22 03:20:00 53.2 54.1 37.0 53.2 53.2 0.0 0.0 0.0 124.6 0.0 0.00 0.0000000
2021-10-22 03:25:00 53.1 53.4 36.6 53.1 53.1 0.0 0.0 0.0 280.8 0.0 0.00 0.0000000
2021-10-22 03:30:00 53.1 52.8 36.3 53.1 53.1 0.0 0.0 0.0 285.9 0.0 0.00 0.0000000
2021-10-22 03:35:00 53.0 48.6 34.1 53.0 53.0 0.8 0.8 0.0 331.7 331.7 0.00 0.0000000
2021-10-22 03:40:00 53.4 47.9 34.2 53.4 53.4 1.2 1.7 1.3 323.5 318.2 0.00 0.0000000
2021-10-22 03:45:00 53.4 50.1 35.3 53.4 53.4 0.8 2.1 1.5 1.0 355.2 0.00 0.0000000
2021-10-22 03:50:00 53.3 52.4 36.2 53.3 53.3 2.2 2.2 1.2 328.4 340.9 0.00 0.0000000
2021-10-22 03:55:00 53.1 49.4 34.7 53.1 53.1 2.1 2.2 1.7 319.1 334.4 0.00 0.0000000
2021-10-22 04:00:00 53.3 46.7 33.4 53.3 53.3 1.5 3.0 1.9 275.8 308.3 0.00 0.0000000
2021-10-22 04:05:00 53.3 46.5 33.3 53.3 53.3 0.0 1.7 1.2 337.6 308.0 0.00 0.0000000
2021-10-22 04:10:00 53.2 45.7 32.8 53.2 53.2 0.0 0.0 0.0 268.1 0.0 0.00 0.0000000
2021-10-22 04:15:00 53.5 44.5 32.4 53.5 53.5 0.0 1.5 0.3 295.6 264.7 0.00 0.0000000
2021-10-22 04:20:00 53.4 43.0 31.5 53.4 53.4 0.0 1.9 0.7 305.6 268.0 0.00 0.0000000
2021-10-22 04:25:00 53.7 44.9 32.8 53.7 53.7 0.8 0.8 0.0 146.7 146.7 0.00 0.0000000

Data is courtesy of the NM Climate Center. DO NOT USE IN LEGAL PROCEEDINGS.